sensor_id;sensor_type;location;lat;lon;timestamp;temperature;humidity
24468;DHT22;12634;50.852;5.676;2024-02-28T00:01:03;1.60;99.90
24468;DHT22;12634;50.852;5.676;2024-02-28T00:03:31;1.50;99.90
24468;DHT22;12634;50.852;5.676;2024-02-28T00:05:59;1.50;99.90
24468;DHT22;12634;50.852;5.676;2024-02-28T00:08:27;1.40;99.90
24468;DHT22;12634;50.852;5.676;2024-02-28T00:10:54;1.40;99.90
24468;DHT22;12634;50.852;5.676;2024-02-28T00:13:21;1.30;99.90
24468;DHT22;12634;50.852;5.676;2024-02-28T00:15:50;1.40;99.90
24468;DHT22;12634;50.852;5.676;2024-02-28T00:18:17;1.50;99.90
24468;DHT22;12634;50.852;5.676;2024-02-28T00:20:45;1.60;99.90
24468;DHT22;12634;50.852;5.676;2024-02-28T00:23:12;1.60;99.90
24468;DHT22;12634;50.852;5.676;2024-02-28T00:25:40;1.60;99.90
24468;DHT22;12634;50.852;5.676;2024-02-28T00:28:07;1.60;99.90
24468;DHT22;12634;50.852;5.676;2024-02-28T00:30:35;1.60;99.90
24468;DHT22;12634;50.852;5.676;2024-02-28T00:33:02;1.50;99.90
24468;DHT22;12634;50.852;5.676;2024-02-28T00:35:32;1.60;99.90
24468;DHT22;12634;50.852;5.676;2024-02-28T00:37:59;1.60;99.90
24468;DHT22;12634;50.852;5.676;2024-02-28T00:40:26;1.80;99.90
24468;DHT22;12634;50.852;5.676;2024-02-28T00:42:56;1.90;99.90
24468;DHT22;12634;50.852;5.676;2024-02-28T00:45:23;2.00;99.90
24468;DHT22;12634;50.852;5.676;2024-02-28T00:47:50;2.10;99.90
24468;DHT22;12634;50.852;5.676;2024-02-28T00:50:18;2.10;99.90
24468;DHT22;12634;50.852;5.676;2024-02-28T00:52:45;2.20;99.90
24468;DHT22;12634;50.852;5.676;2024-02-28T00:55:12;2.20;99.90
24468;DHT22;12634;50.852;5.676;2024-02-28T00:57:39;2.20;99.90
24468;DHT22;12634;50.852;5.676;2024-02-28T01:00:12;2.30;99.90
24468;DHT22;12634;50.852;5.676;2024-02-28T01:02:40;2.30;99.90
24468;DHT22;12634;50.852;5.676;2024-02-28T01:05:08;2.20;99.90
24468;DHT22;12634;50.852;5.676;2024-02-28T01:07:35;2.20;99.90
24468;DHT22;12634;50.852;5.676;2024-02-28T01:10:03;2.20;99.90
24468;DHT22;12634;50.852;5.676;2024-02-28T01:12:30;2.10;99.90
24468;DHT22;12634;50.852;5.676;2024-02-28T01:14:57;2.20;99.90
24468;DHT22;12634;50.852;5.676;2024-02-28T01:17:26;2.20;99.90
24468;DHT22;12634;50.852;5.676;2024-02-28T01:19:53;2.10;99.90
24468;DHT22;12634;50.852;5.676;2024-02-28T01:22:20;2.00;99.90
24468;DHT22;12634;50.852;5.676;2024-02-28T01:24:47;1.90;99.90
24468;DHT22;12634;50.852;5.676;2024-02-28T01:27:14;1.80;99.90
24468;DHT22;12634;50.852;5.676;2024-02-28T01:29:41;1.60;99.90
24468;DHT22;12634;50.852;5.676;2024-02-28T01:32:08;1.60;99.90
24468;DHT22;12634;50.852;5.676;2024-02-28T01:34:37;1.60;99.90
24468;DHT22;12634;50.852;5.676;2024-02-28T01:37:04;1.50;99.90
24468;DHT22;12634;50.852;5.676;2024-02-28T01:39:31;1.50;99.90
24468;DHT22;12634;50.852;5.676;2024-02-28T01:41:58;1.50;99.90
24468;DHT22;12634;50.852;5.676;2024-02-28T01:44:25;1.50;99.90
24468;DHT22;12634;50.852;5.676;2024-02-28T01:46:53;1.50;99.90
24468;DHT22;12634;50.852;5.676;2024-02-28T01:49:22;1.50;99.90
24468;DHT22;12634;50.852;5.676;2024-02-28T01:51:53;1.50;99.90
24468;DHT22;12634;50.852;5.676;2024-02-28T01:54:23;1.40;99.90
24468;DHT22;12634;50.852;5.676;2024-02-28T01:56:50;1.40;99.90
24468;DHT22;12634;50.852;5.676;2024-02-28T01:59:18;1.30;99.90
24468;DHT22;12634;50.852;5.676;2024-02-28T02:01:45;0.70;99.90
24468;DHT22;12634;50.852;5.676;2024-02-28T02:04:13;0.50;99.90
24468;DHT22;12634;50.852;5.676;2024-02-28T02:06:42;0.30;99.90
24468;DHT22;12634;50.852;5.676;2024-02-28T02:09:12;-0.10;99.90
24468;DHT22;12634;50.852;5.676;2024-02-28T02:11:39;-0.30;99.90
24468;DHT22;12634;50.852;5.676;2024-02-28T02:14:06;-0.30;99.90
24468;DHT22;12634;50.852;5.676;2024-02-28T02:16:33;-0.20;99.90
24468;DHT22;12634;50.852;5.676;2024-02-28T02:19:00;-0.10;99.90
24468;DHT22;12634;50.852;5.676;2024-02-28T02:21:31;-0.10;99.90
24468;DHT22;12634;50.852;5.676;2024-02-28T02:24:02;-0.10;99.90
24468;DHT22;12634;50.852;5.676;2024-02-28T02:26:29;-0.10;99.90
24468;DHT22;12634;50.852;5.676;2024-02-28T02:28:56;-0.10;99.90
24468;DHT22;12634;50.852;5.676;2024-02-28T02:31:23;0.00;99.90
24468;DHT22;12634;50.852;5.676;2024-02-28T02:33:50;0.40;99.90
24468;DHT22;12634;50.852;5.676;2024-02-28T02:36:17;0.50;99.90
24468;DHT22;12634;50.852;5.676;2024-02-28T02:38:45;0.70;99.90
24468;DHT22;12634;50.852;5.676;2024-02-28T02:41:13;1.00;99.90
24468;DHT22;12634;50.852;5.676;2024-02-28T02:43:40;1.50;99.90
24468;DHT22;12634;50.852;5.676;2024-02-28T02:46:07;1.90;99.90
24468;DHT22;12634;50.852;5.676;2024-02-28T02:48:34;2.30;99.90
24468;DHT22;12634;50.852;5.676;2024-02-28T02:51:02;2.70;99.90
24468;DHT22;12634;50.852;5.676;2024-02-28T02:53:29;3.10;99.90
24468;DHT22;12634;50.852;5.676;2024-02-28T02:55:56;3.40;99.90
24468;DHT22;12634;50.852;5.676;2024-02-28T02:58:25;3.70;99.90
24468;DHT22;12634;50.852;5.676;2024-02-28T03:00:52;3.80;99.90
24468;DHT22;12634;50.852;5.676;2024-02-28T03:03:19;4.00;99.90
24468;DHT22;12634;50.852;5.676;2024-02-28T03:05:46;4.20;99.90
24468;DHT22;12634;50.852;5.676;2024-02-28T03:08:14;4.40;99.90
24468;DHT22;12634;50.852;5.676;2024-02-28T03:10:41;4.50;99.90
24468;DHT22;12634;50.852;5.676;2024-02-28T03:13:08;4.60;99.90
24468;DHT22;12634;50.852;5.676;2024-02-28T03:15:37;4.80;99.90
24468;DHT22;12634;50.852;5.676;2024-02-28T03:18:04;4.90;99.90
24468;DHT22;12634;50.852;5.676;2024-02-28T03:20:31;5.10;99.90
24468;DHT22;12634;50.852;5.676;2024-02-28T03:22:59;5.20;99.90
24468;DHT22;12634;50.852;5.676;2024-02-28T03:25:27;5.30;99.90
24468;DHT22;12634;50.852;5.676;2024-02-28T03:27:55;5.40;99.90
24468;DHT22;12634;50.852;5.676;2024-02-28T03:30:22;5.50;99.90
24468;DHT22;12634;50.852;5.676;2024-02-28T03:32:50;5.60;99.90
24468;DHT22;12634;50.852;5.676;2024-02-28T03:35:17;5.70;99.90
24468;DHT22;12634;50.852;5.676;2024-02-28T03:37:45;5.80;99.90
24468;DHT22;12634;50.852;5.676;2024-02-28T03:40:12;5.80;99.90
24468;DHT22;12634;50.852;5.676;2024-02-28T03:42:40;5.80;99.90
24468;DHT22;12634;50.852;5.676;2024-02-28T03:45:07;5.90;99.90
24468;DHT22;12634;50.852;5.676;2024-02-28T03:47:34;5.90;99.90
24468;DHT22;12634;50.852;5.676;2024-02-28T03:50:04;6.00;99.90
24468;DHT22;12634;50.852;5.676;2024-02-28T03:52:31;6.00;99.90
24468;DHT22;12634;50.852;5.676;2024-02-28T03:54:58;6.00;99.90
24468;DHT22;12634;50.852;5.676;2024-02-28T03:57:25;6.10;99.90
24468;DHT22;12634;50.852;5.676;2024-02-28T03:59:52;6.20;99.90
24468;DHT22;12634;50.852;5.676;2024-02-28T04:02:19;6.20;99.90
24468;DHT22;12634;50.852;5.676;2024-02-28T04:04:46;6.20;99.90
24468;DHT22;12634;50.852;5.676;2024-02-28T04:07:15;6.30;99.90
24468;DHT22;12634;50.852;5.676;2024-02-28T04:09:42;6.30;99.90
24468;DHT22;12634;50.852;5.676;2024-02-28T04:12:09;6.30;99.90
24468;DHT22;12634;50.852;5.676;2024-02-28T04:14:37;6.40;99.90
24468;DHT22;12634;50.852;5.676;2024-02-28T04:17:05;6.40;99.90
24468;DHT22;12634;50.852;5.676;2024-02-28T04:19:33;6.50;99.90
24468;DHT22;12634;50.852;5.676;2024-02-28T04:22:03;6.40;99.90
24468;DHT22;12634;50.852;5.676;2024-02-28T04:24:31;6.50;99.90
24468;DHT22;12634;50.852;5.676;2024-02-28T04:26:59;6.50;99.90
24468;DHT22;12634;50.852;5.676;2024-02-28T04:29:28;6.60;99.90
24468;DHT22;12634;50.852;5.676;2024-02-28T04:31:55;6.60;99.90
24468;DHT22;12634;50.852;5.676;2024-02-28T04:34:22;6.60;99.90
24468;DHT22;12634;50.852;5.676;2024-02-28T04:36:50;6.70;99.90
24468;DHT22;12634;50.852;5.676;2024-02-28T04:39:17;6.80;99.90
24468;DHT22;12634;50.852;5.676;2024-02-28T04:41:45;6.80;99.90
24468;DHT22;12634;50.852;5.676;2024-02-28T04:44:12;6.80;99.90
24468;DHT22;12634;50.852;5.676;2024-02-28T04:46:39;6.90;99.90
24468;DHT22;12634;50.852;5.676;2024-02-28T04:49:06;7.00;99.90
24468;DHT22;12634;50.852;5.676;2024-02-28T04:51:34;7.00;99.90
24468;DHT22;12634;50.852;5.676;2024-02-28T04:54:02;7.10;99.90
24468;DHT22;12634;50.852;5.676;2024-02-28T04:56:29;7.20;99.90
24468;DHT22;12634;50.852;5.676;2024-02-28T04:58:57;7.20;99.90
24468;DHT22;12634;50.852;5.676;2024-02-28T05:01:24;7.20;99.90
24468;DHT22;12634;50.852;5.676;2024-02-28T05:03:55;7.20;99.90
24468;DHT22;12634;50.852;5.676;2024-02-28T05:06:22;7.30;99.90
24468;DHT22;12634;50.852;5.676;2024-02-28T05:08:49;7.40;99.90
24468;DHT22;12634;50.852;5.676;2024-02-28T05:11:16;7.50;99.90
24468;DHT22;12634;50.852;5.676;2024-02-28T05:13:43;7.40;99.90
24468;DHT22;12634;50.852;5.676;2024-02-28T05:16:14;7.40;99.90
24468;DHT22;12634;50.852;5.676;2024-02-28T05:18:41;7.40;99.90
24468;DHT22;12634;50.852;5.676;2024-02-28T05:21:08;7.30;99.90
24468;DHT22;12634;50.852;5.676;2024-02-28T05:23:36;7.50;99.90
24468;DHT22;12634;50.852;5.676;2024-02-28T05:26:03;7.30;99.90
24468;DHT22;12634;50.852;5.676;2024-02-28T05:28:32;7.40;99.90
24468;DHT22;12634;50.852;5.676;2024-02-28T05:31:00;7.30;99.90
24468;DHT22;12634;50.852;5.676;2024-02-28T05:33:30;7.40;99.90
24468;DHT22;12634;50.852;5.676;2024-02-28T05:35:57;7.40;99.90
24468;DHT22;12634;50.852;5.676;2024-02-28T05:38:25;7.30;99.90
24468;DHT22;12634;50.852;5.676;2024-02-28T05:40:52;7.50;99.90
24468;DHT22;12634;50.852;5.676;2024-02-28T05:43:19;7.50;99.90
24468;DHT22;12634;50.852;5.676;2024-02-28T05:45:46;7.50;99.90
24468;DHT22;12634;50.852;5.676;2024-02-28T05:48:13;7.40;99.90
24468;DHT22;12634;50.852;5.676;2024-02-28T05:50:42;7.50;99.90
24468;DHT22;12634;50.852;5.676;2024-02-28T05:53:09;7.60;99.90
24468;DHT22;12634;50.852;5.676;2024-02-28T05:55:36;7.60;99.90
24468;DHT22;12634;50.852;5.676;2024-02-28T05:58:03;7.80;99.90
24468;DHT22;12634;50.852;5.676;2024-02-28T06:00:30;7.90;99.90
24468;DHT22;12634;50.852;5.676;2024-02-28T06:02:57;8.00;99.90
24468;DHT22;12634;50.852;5.676;2024-02-28T06:05:24;8.10;99.90
24468;DHT22;12634;50.852;5.676;2024-02-28T06:07:53;8.10;99.90
24468;DHT22;12634;50.852;5.676;2024-02-28T06:10:20;8.20;99.90
24468;DHT22;12634;50.852;5.676;2024-02-28T06:12:47;8.30;99.90
24468;DHT22;12634;50.852;5.676;2024-02-28T06:15:15;8.40;99.90
24468;DHT22;12634;50.852;5.676;2024-02-28T06:17:42;8.50;99.90
24468;DHT22;12634;50.852;5.676;2024-02-28T06:20:09;8.50;99.90
24468;DHT22;12634;50.852;5.676;2024-02-28T06:22:36;8.50;99.90
24468;DHT22;12634;50.852;5.676;2024-02-28T06:25:06;8.60;99.90
24468;DHT22;12634;50.852;5.676;2024-02-28T06:27:39;8.70;99.90
24468;DHT22;12634;50.852;5.676;2024-02-28T06:30:08;8.80;99.90
24468;DHT22;12634;50.852;5.676;2024-02-28T06:32:35;8.90;99.90
24468;DHT22;12634;50.852;5.676;2024-02-28T06:35:02;9.00;99.90
24468;DHT22;12634;50.852;5.676;2024-02-28T06:37:30;9.10;99.90
24468;DHT22;12634;50.852;5.676;2024-02-28T06:39:57;9.20;99.90
24468;DHT22;12634;50.852;5.676;2024-02-28T06:42:25;9.20;99.90
24468;DHT22;12634;50.852;5.676;2024-02-28T06:44:52;9.30;99.90
24468;DHT22;12634;50.852;5.676;2024-02-28T06:47:19;9.30;99.90
24468;DHT22;12634;50.852;5.676;2024-02-28T06:49:47;9.40;99.90
24468;DHT22;12634;50.852;5.676;2024-02-28T06:52:15;9.50;99.90
24468;DHT22;12634;50.852;5.676;2024-02-28T06:54:42;9.60;99.90
24468;DHT22;12634;50.852;5.676;2024-02-28T06:57:09;9.70;99.90
24468;DHT22;12634;50.852;5.676;2024-02-28T06:59:38;9.80;99.90
24468;DHT22;12634;50.852;5.676;2024-02-28T07:02:05;9.80;99.90
24468;DHT22;12634;50.852;5.676;2024-02-28T07:04:32;10.00;99.90
24468;DHT22;12634;50.852;5.676;2024-02-28T07:06:59;10.10;99.90
24468;DHT22;12634;50.852;5.676;2024-02-28T07:09:27;10.20;99.90
24468;DHT22;12634;50.852;5.676;2024-02-28T07:11:56;10.40;99.90
24468;DHT22;12634;50.852;5.676;2024-02-28T07:14:23;10.60;99.90
24468;DHT22;12634;50.852;5.676;2024-02-28T07:16:52;10.70;99.90
24468;DHT22;12634;50.852;5.676;2024-02-28T07:19:19;10.90;99.90
24468;DHT22;12634;50.852;5.676;2024-02-28T07:21:47;11.50;99.90
24468;DHT22;12634;50.852;5.676;2024-02-28T07:24:14;11.70;99.90
24468;DHT22;12634;50.852;5.676;2024-02-28T07:26:41;11.60;99.90
24468;DHT22;12634;50.852;5.676;2024-02-28T07:29:08;11.80;99.90
24468;DHT22;12634;50.852;5.676;2024-02-28T07:31:35;11.80;99.90
24468;DHT22;12634;50.852;5.676;2024-02-28T07:34:04;11.90;99.90
24468;DHT22;12634;50.852;5.676;2024-02-28T07:36:31;11.90;99.90
24468;DHT22;12634;50.852;5.676;2024-02-28T07:38:58;11.90;99.90
24468;DHT22;12634;50.852;5.676;2024-02-28T07:41:25;12.00;99.90
24468;DHT22;12634;50.852;5.676;2024-02-28T07:43:52;12.30;99.90
24468;DHT22;12634;50.852;5.676;2024-02-28T07:46:20;12.60;99.90
24468;DHT22;12634;50.852;5.676;2024-02-28T07:48:47;12.60;99.90
24468;DHT22;12634;50.852;5.676;2024-02-28T07:51:17;12.40;99.90
24468;DHT22;12634;50.852;5.676;2024-02-28T07:53:45;12.50;99.90
24468;DHT22;12634;50.852;5.676;2024-02-28T07:56:16;12.90;99.90
24468;DHT22;12634;50.852;5.676;2024-02-28T07:58:44;12.70;99.90
24468;DHT22;12634;50.852;5.676;2024-02-28T08:01:11;12.70;99.90
24468;DHT22;12634;50.852;5.676;2024-02-28T08:03:38;12.90;99.90
24468;DHT22;12634;50.852;5.676;2024-02-28T08:06:06;12.80;99.90
24468;DHT22;12634;50.852;5.676;2024-02-28T08:08:35;12.70;99.90
24468;DHT22;12634;50.852;5.676;2024-02-28T08:11:03;12.90;99.90
24468;DHT22;12634;50.852;5.676;2024-02-28T08:13:31;12.60;99.90
24468;DHT22;12634;50.852;5.676;2024-02-28T08:15:58;12.50;99.90
24468;DHT22;12634;50.852;5.676;2024-02-28T08:18:26;12.60;99.90
24468;DHT22;12634;50.852;5.676;2024-02-28T08:20:53;12.70;99.90
24468;DHT22;12634;50.852;5.676;2024-02-28T08:23:23;13.00;99.90
24468;DHT22;12634;50.852;5.676;2024-02-28T08:25:53;13.10;99.90
24468;DHT22;12634;50.852;5.676;2024-02-28T08:28:20;13.10;99.90
24468;DHT22;12634;50.852;5.676;2024-02-28T08:30:48;13.50;99.90
24468;DHT22;12634;50.852;5.676;2024-02-28T08:33:16;13.50;99.90
24468;DHT22;12634;50.852;5.676;2024-02-28T08:35:43;13.90;99.90
24468;DHT22;12634;50.852;5.676;2024-02-28T08:38:10;13.80;99.90
24468;DHT22;12634;50.852;5.676;2024-02-28T08:40:37;13.70;99.90
24468;DHT22;12634;50.852;5.676;2024-02-28T08:43:06;13.80;99.90
24468;DHT22;12634;50.852;5.676;2024-02-28T08:45:34;13.80;99.90
24468;DHT22;12634;50.852;5.676;2024-02-28T08:48:01;13.90;99.90
24468;DHT22;12634;50.852;5.676;2024-02-28T08:50:28;14.20;99.90
24468;DHT22;12634;50.852;5.676;2024-02-28T08:52:56;14.40;99.90
24468;DHT22;12634;50.852;5.676;2024-02-28T08:55:23;14.50;99.90
24468;DHT22;12634;50.852;5.676;2024-02-28T08:57:50;14.40;99.90
24468;DHT22;12634;50.852;5.676;2024-02-28T09:00:19;14.20;99.90
24468;DHT22;12634;50.852;5.676;2024-02-28T09:02:47;14.00;99.90
24468;DHT22;12634;50.852;5.676;2024-02-28T09:05:14;14.10;99.90
24468;DHT22;12634;50.852;5.676;2024-02-28T09:07:42;14.30;99.90
24468;DHT22;12634;50.852;5.676;2024-02-28T09:10:09;14.60;99.90
24468;DHT22;12634;50.852;5.676;2024-02-28T09:12:37;14.40;99.90
24468;DHT22;12634;50.852;5.676;2024-02-28T09:15:05;14.50;99.90
24468;DHT22;12634;50.852;5.676;2024-02-28T09:17:33;14.10;99.90
24468;DHT22;12634;50.852;5.676;2024-02-28T09:20:01;13.50;99.90
24468;DHT22;12634;50.852;5.676;2024-02-28T09:22:30;13.50;99.90
24468;DHT22;12634;50.852;5.676;2024-02-28T09:24:57;13.20;99.90
24468;DHT22;12634;50.852;5.676;2024-02-28T09:27:24;13.40;99.90
24468;DHT22;12634;50.852;5.676;2024-02-28T09:29:51;12.90;99.90
24468;DHT22;12634;50.852;5.676;2024-02-28T09:32:19;13.20;99.90
24468;DHT22;12634;50.852;5.676;2024-02-28T09:34:47;13.40;99.90
24468;DHT22;12634;50.852;5.676;2024-02-28T09:37:14;13.60;99.90
24468;DHT22;12634;50.852;5.676;2024-02-28T09:39:42;14.20;99.90
24468;DHT22;12634;50.852;5.676;2024-02-28T09:42:10;14.40;99.90
24468;DHT22;12634;50.852;5.676;2024-02-28T09:44:37;14.10;99.90
24468;DHT22;12634;50.852;5.676;2024-02-28T09:47:05;13.90;99.90
24468;DHT22;12634;50.852;5.676;2024-02-28T09:49:34;12.90;99.90
24468;DHT22;12634;50.852;5.676;2024-02-28T09:52:04;12.50;99.90
24468;DHT22;12634;50.852;5.676;2024-02-28T09:54:31;12.00;99.90
24468;DHT22;12634;50.852;5.676;2024-02-28T09:56:59;11.80;99.90
24468;DHT22;12634;50.852;5.676;2024-02-28T09:59:27;11.70;99.90
24468;DHT22;12634;50.852;5.676;2024-02-28T10:01:57;11.50;99.90
24468;DHT22;12634;50.852;5.676;2024-02-28T10:04:26;11.60;99.90
24468;DHT22;12634;50.852;5.676;2024-02-28T10:06:54;11.30;99.90
24468;DHT22;12634;50.852;5.676;2024-02-28T10:09:23;11.30;99.90
24468;DHT22;12634;50.852;5.676;2024-02-28T10:11:50;11.20;99.90
24468;DHT22;12634;50.852;5.676;2024-02-28T10:14:17;11.50;99.90
24468;DHT22;12634;50.852;5.676;2024-02-28T10:16:45;11.50;99.90
24468;DHT22;12634;50.852;5.676;2024-02-28T10:19:12;11.60;99.90
24468;DHT22;12634;50.852;5.676;2024-02-28T10:21:40;11.50;99.90
24468;DHT22;12634;50.852;5.676;2024-02-28T10:24:07;12.00;99.90
24468;DHT22;12634;50.852;5.676;2024-02-28T10:26:44;11.60;99.90
24468;DHT22;12634;50.852;5.676;2024-02-28T10:29:11;13.00;99.90
24468;DHT22;12634;50.852;5.676;2024-02-28T10:31:38;12.10;99.90
24468;DHT22;12634;50.852;5.676;2024-02-28T10:34:07;11.40;99.90
24468;DHT22;12634;50.852;5.676;2024-02-28T10:36:36;12.20;99.90
24468;DHT22;12634;50.852;5.676;2024-02-28T10:39:03;11.70;99.90
24468;DHT22;12634;50.852;5.676;2024-02-28T10:41:31;11.20;99.90
24468;DHT22;12634;50.852;5.676;2024-02-28T10:44:01;11.00;99.90
24468;DHT22;12634;50.852;5.676;2024-02-28T10:46:29;11.60;99.90
24468;DHT22;12634;50.852;5.676;2024-02-28T10:48:56;12.00;99.90
24468;DHT22;12634;50.852;5.676;2024-02-28T10:51:24;12.10;99.90
24468;DHT22;12634;50.852;5.676;2024-02-28T10:54:07;12.00;99.90
24468;DHT22;12634;50.852;5.676;2024-02-28T10:56:35;12.00;99.90
24468;DHT22;12634;50.852;5.676;2024-02-28T10:59:05;12.60;99.90
24468;DHT22;12634;50.852;5.676;2024-02-28T11:01:33;10.90;99.90
24468;DHT22;12634;50.852;5.676;2024-02-28T11:04:01;11.00;99.90
24468;DHT22;12634;50.852;5.676;2024-02-28T11:06:29;10.80;99.90
24468;DHT22;12634;50.852;5.676;2024-02-28T11:08:59;10.40;99.90
24468;DHT22;12634;50.852;5.676;2024-02-28T11:11:30;11.20;99.90
24468;DHT22;12634;50.852;5.676;2024-02-28T11:13:59;10.80;99.90
24468;DHT22;12634;50.852;5.676;2024-02-28T11:16:29;10.80;99.90
24468;DHT22;12634;50.852;5.676;2024-02-28T11:18:58;10.70;99.90
24468;DHT22;12634;50.852;5.676;2024-02-28T11:21:25;10.60;99.90
24468;DHT22;12634;50.852;5.676;2024-02-28T11:23:57;11.30;99.90
24468;DHT22;12634;50.852;5.676;2024-02-28T11:26:25;11.50;99.90
24468;DHT22;12634;50.852;5.676;2024-02-28T11:28:53;10.60;99.90
24468;DHT22;12634;50.852;5.676;2024-02-28T11:31:21;10.40;99.90
24468;DHT22;12634;50.852;5.676;2024-02-28T11:33:49;9.70;99.90
24468;DHT22;12634;50.852;5.676;2024-02-28T11:36:17;10.30;99.90
24468;DHT22;12634;50.852;5.676;2024-02-28T11:38:45;9.60;99.90
24468;DHT22;12634;50.852;5.676;2024-02-28T11:41:12;9.00;99.90
24468;DHT22;12634;50.852;5.676;2024-02-28T11:43:39;8.80;99.90
24468;DHT22;12634;50.852;5.676;2024-02-28T11:46:08;8.80;99.90
24468;DHT22;12634;50.852;5.676;2024-02-28T11:48:36;9.00;99.90
24468;DHT22;12634;50.852;5.676;2024-02-28T11:51:05;8.90;99.90
24468;DHT22;12634;50.852;5.676;2024-02-28T11:53:32;8.90;99.90
24468;DHT22;12634;50.852;5.676;2024-02-28T11:55:59;8.60;99.90
24468;DHT22;12634;50.852;5.676;2024-02-28T11:58:27;9.00;99.90
24468;DHT22;12634;50.852;5.676;2024-02-28T12:00:54;9.20;99.90
24468;DHT22;12634;50.852;5.676;2024-02-28T12:03:22;9.20;99.90
24468;DHT22;12634;50.852;5.676;2024-02-28T12:05:49;9.20;99.90
24468;DHT22;12634;50.852;5.676;2024-02-28T12:08:19;9.30;99.90
24468;DHT22;12634;50.852;5.676;2024-02-28T12:10:46;9.10;99.90
24468;DHT22;12634;50.852;5.676;2024-02-28T12:13:17;9.60;99.90
24468;DHT22;12634;50.852;5.676;2024-02-28T12:15:44;9.70;99.90
24468;DHT22;12634;50.852;5.676;2024-02-28T12:18:12;9.50;99.90
24468;DHT22;12634;50.852;5.676;2024-02-28T12:20:41;9.60;99.90
24468;DHT22;12634;50.852;5.676;2024-02-28T12:23:08;10.00;99.90
24468;DHT22;12634;50.852;5.676;2024-02-28T12:25:37;10.00;99.90
24468;DHT22;12634;50.852;5.676;2024-02-28T12:28:05;9.90;99.90
24468;DHT22;12634;50.852;5.676;2024-02-28T12:30:39;9.50;99.90
24468;DHT22;12634;50.852;5.676;2024-02-28T12:33:07;9.80;99.90
24468;DHT22;12634;50.852;5.676;2024-02-28T12:35:34;9.90;99.90
24468;DHT22;12634;50.852;5.676;2024-02-28T12:38:02;9.90;99.90
24468;DHT22;12634;50.852;5.676;2024-02-28T12:40:29;9.40;99.90
24468;DHT22;12634;50.852;5.676;2024-02-28T12:42:58;9.40;99.90
24468;DHT22;12634;50.852;5.676;2024-02-28T12:45:25;9.40;99.90
24468;DHT22;12634;50.852;5.676;2024-02-28T12:47:53;9.50;99.90
24468;DHT22;12634;50.852;5.676;2024-02-28T12:50:22;9.40;99.90
24468;DHT22;12634;50.852;5.676;2024-02-28T12:52:50;9.80;99.90
24468;DHT22;12634;50.852;5.676;2024-02-28T12:55:19;9.60;99.90
24468;DHT22;12634;50.852;5.676;2024-02-28T12:57:47;9.20;99.90
24468;DHT22;12634;50.852;5.676;2024-02-28T13:00:16;9.70;99.90
24468;DHT22;12634;50.852;5.676;2024-02-28T13:02:44;10.50;99.90
24468;DHT22;12634;50.852;5.676;2024-02-28T13:05:11;9.40;99.90
24468;DHT22;12634;50.852;5.676;2024-02-28T13:07:40;9.70;99.90
24468;DHT22;12634;50.852;5.676;2024-02-28T13:10:07;9.90;99.90
24468;DHT22;12634;50.852;5.676;2024-02-28T13:12:36;9.70;99.90
24468;DHT22;12634;50.852;5.676;2024-02-28T13:15:05;9.50;99.90
24468;DHT22;12634;50.852;5.676;2024-02-28T13:17:35;9.60;99.90
24468;DHT22;12634;50.852;5.676;2024-02-28T13:20:02;10.10;99.90
24468;DHT22;12634;50.852;5.676;2024-02-28T13:22:29;9.80;99.90
24468;DHT22;12634;50.852;5.676;2024-02-28T13:24:57;9.90;99.90
24468;DHT22;12634;50.852;5.676;2024-02-28T13:27:24;10.00;99.90
24468;DHT22;12634;50.852;5.676;2024-02-28T13:29:51;9.50;99.90
24468;DHT22;12634;50.852;5.676;2024-02-28T13:32:18;9.70;99.90
24468;DHT22;12634;50.852;5.676;2024-02-28T13:34:47;9.70;99.90
24468;DHT22;12634;50.852;5.676;2024-02-28T13:37:14;9.70;99.90
24468;DHT22;12634;50.852;5.676;2024-02-28T13:39:41;10.10;99.90
24468;DHT22;12634;50.852;5.676;2024-02-28T13:42:08;9.80;99.90
24468;DHT22;12634;50.852;5.676;2024-02-28T13:44:35;10.00;99.90
24468;DHT22;12634;50.852;5.676;2024-02-28T13:47:04;9.80;99.90
24468;DHT22;12634;50.852;5.676;2024-02-28T13:49:31;9.90;99.90
24468;DHT22;12634;50.852;5.676;2024-02-28T13:52:00;9.90;99.90
24468;DHT22;12634;50.852;5.676;2024-02-28T13:54:27;9.60;99.90
24468;DHT22;12634;50.852;5.676;2024-02-28T13:56:55;9.70;99.90
24468;DHT22;12634;50.852;5.676;2024-02-28T13:59:22;9.60;99.90
24468;DHT22;12634;50.852;5.676;2024-02-28T14:01:50;9.90;99.90
24468;DHT22;12634;50.852;5.676;2024-02-28T14:04:17;10.30;99.90
24468;DHT22;12634;50.852;5.676;2024-02-28T14:06:44;9.80;99.90
24468;DHT22;12634;50.852;5.676;2024-02-28T14:09:13;9.70;99.90
24468;DHT22;12634;50.852;5.676;2024-02-28T14:11:40;9.80;99.90
24468;DHT22;12634;50.852;5.676;2024-02-28T14:14:07;9.90;99.90
24468;DHT22;12634;50.852;5.676;2024-02-28T14:16:35;10.20;99.90
24468;DHT22;12634;50.852;5.676;2024-02-28T14:19:02;10.10;99.90
24468;DHT22;12634;50.852;5.676;2024-02-28T14:21:30;9.90;99.90
24468;DHT22;12634;50.852;5.676;2024-02-28T14:23:57;10.20;99.90
24468;DHT22;12634;50.852;5.676;2024-02-28T14:26:25;10.90;99.90
24468;DHT22;12634;50.852;5.676;2024-02-28T14:28:53;10.60;99.90
24468;DHT22;12634;50.852;5.676;2024-02-28T14:31:22;10.80;99.90
24468;DHT22;12634;50.852;5.676;2024-02-28T14:33:49;10.70;99.90
24468;DHT22;12634;50.852;5.676;2024-02-28T14:36:17;10.60;99.90
24468;DHT22;12634;50.852;5.676;2024-02-28T14:38:46;10.60;99.90
24468;DHT22;12634;50.852;5.676;2024-02-28T14:41:13;10.70;99.90
24468;DHT22;12634;50.852;5.676;2024-02-28T14:43:42;10.70;99.90
24468;DHT22;12634;50.852;5.676;2024-02-28T14:46:10;10.30;99.90
24468;DHT22;12634;50.852;5.676;2024-02-28T14:48:38;10.00;99.90
24468;DHT22;12634;50.852;5.676;2024-02-28T14:51:05;10.00;99.90
24468;DHT22;12634;50.852;5.676;2024-02-28T14:53:33;9.80;99.90
24468;DHT22;12634;50.852;5.676;2024-02-28T14:56:00;9.90;99.90
24468;DHT22;12634;50.852;5.676;2024-02-28T14:58:27;10.00;99.90
24468;DHT22;12634;50.852;5.676;2024-02-28T15:00:56;10.00;99.90
24468;DHT22;12634;50.852;5.676;2024-02-28T15:03:26;10.20;99.90
24468;DHT22;12634;50.852;5.676;2024-02-28T15:05:53;10.90;99.90
24468;DHT22;12634;50.852;5.676;2024-02-28T15:08:20;10.50;99.90
24468;DHT22;12634;50.852;5.676;2024-02-28T15:10:47;10.70;99.90
24468;DHT22;12634;50.852;5.676;2024-02-28T15:13:15;10.30;99.90
24468;DHT22;12634;50.852;5.676;2024-02-28T15:15:42;10.00;99.90
24468;DHT22;12634;50.852;5.676;2024-02-28T15:18:10;10.00;99.90
24468;DHT22;12634;50.852;5.676;2024-02-28T15:20:38;10.20;99.90
24468;DHT22;12634;50.852;5.676;2024-02-28T15:23:05;10.20;99.90
24468;DHT22;12634;50.852;5.676;2024-02-28T15:25:32;10.30;99.90
24468;DHT22;12634;50.852;5.676;2024-02-28T15:27:59;10.10;99.90
24468;DHT22;12634;50.852;5.676;2024-02-28T15:30:26;10.00;99.90
24468;DHT22;12634;50.852;5.676;2024-02-28T15:32:54;10.10;99.90
24468;DHT22;12634;50.852;5.676;2024-02-28T15:35:22;10.10;99.90
24468;DHT22;12634;50.852;5.676;2024-02-28T15:37:50;10.10;99.90
24468;DHT22;12634;50.852;5.676;2024-02-28T15:40:17;10.50;99.90
24468;DHT22;12634;50.852;5.676;2024-02-28T15:42:46;10.60;99.90